createdAt,value
2019-03-24T00:00:17.457Z,36.83
2019-03-24T00:01:17.475Z,37.01
2019-03-24T00:02:17.483Z,36.65
2019-03-24T00:03:17.496Z,36.72
2019-03-24T00:04:17.511Z,36.82
2019-03-24T00:05:17.526Z,36.72
2019-03-24T00:06:17.529Z,36.72
2019-03-24T00:07:17.538Z,37.01
2019-03-24T00:08:17.554Z,37.19
2019-03-24T00:09:17.566Z,37.38
2019-03-24T00:10:17.573Z,37.29
2019-03-24T00:11:17.584Z,37.29
2019-03-24T00:12:17.600Z,37.10
2019-03-24T00:13:17.611Z,37.21
2019-03-24T00:14:17.627Z,36.91
2019-03-24T00:15:25.719Z,37.01
2019-03-24T00:16:17.681Z,36.63
2019-03-24T00:17:17.653Z,36.82
2019-03-24T00:18:17.664Z,36.72
2019-03-24T00:19:17.683Z,37.01
2019-03-24T00:20:17.688Z,36.63
2019-03-24T00:21:17.700Z,36.63
2019-03-24T00:22:17.714Z,36.63
2019-03-24T00:23:17.724Z,36.82
2019-03-24T00:24:17.737Z,36.72
2019-03-24T00:25:17.748Z,36.72
2019-03-24T00:26:17.754Z,37.01
2019-03-24T00:27:17.766Z,36.63
2019-03-24T00:28:17.781Z,36.82
2019-03-24T00:29:17.790Z,36.72
2019-03-24T00:30:17.805Z,37.38
2019-03-24T00:31:17.816Z,37.38
2019-03-24T00:32:17.822Z,37.10
2019-03-24T00:33:17.841Z,37.10
2019-03-24T00:34:17.851Z,37.29
2019-03-24T00:35:17.857Z,36.82
2019-03-24T00:36:17.872Z,36.44
2019-03-24T00:37:17.881Z,36.15
2019-03-24T00:38:17.889Z,36.53
2019-03-24T00:39:17.902Z,36.63
2019-03-24T00:40:17.913Z,37.10
2019-03-24T00:41:17.926Z,36.91
2019-03-24T00:42:17.941Z,37.29
2019-03-24T00:43:17.954Z,37.38
2019-03-24T00:44:17.959Z,37.29
2019-03-24T00:45:17.982Z,36.24
2019-03-24T00:46:17.982Z,36.05
2019-03-24T00:47:17.994Z,36.53
2019-03-24T00:48:18.007Z,36.24
2019-03-24T00:49:18.021Z,36.15
2019-03-24T00:50:18.030Z,36.15
2019-03-24T00:51:18.037Z,36.15
2019-03-24T00:52:18.050Z,36.05
2019-03-24T00:53:18.060Z,36.24
2019-03-24T00:54:18.074Z,36.15
2019-03-24T00:55:18.082Z,36.05
2019-03-24T00:56:18.099Z,36.34
2019-03-24T00:57:18.105Z,36.24
2019-03-24T00:58:18.121Z,35.77
2019-03-24T00:59:18.128Z,35.68
2019-03-24T01:00:18.143Z,35.86
2019-03-24T01:01:18.155Z,36.34
2019-03-24T01:02:18.164Z,35.96
2019-03-24T01:03:18.176Z,36.63
2019-03-24T01:04:18.190Z,36.91
2019-03-24T01:05:18.196Z,36.82
2019-03-24T01:06:18.206Z,36.63
2019-03-24T01:07:18.217Z,36.82
2019-03-24T01:08:18.235Z,36.15
2019-03-24T01:09:18.239Z,36.24
2019-03-24T01:10:18.254Z,36.24
2019-03-24T01:11:18.267Z,36.72
2019-03-24T01:12:18.276Z,36.24
2019-03-24T01:13:18.294Z,36.05
2019-03-24T01:14:18.296Z,36.63
2019-03-24T01:15:18.308Z,36.82
2019-03-24T01:16:18.323Z,36.24
2019-03-24T01:17:18.332Z,36.15
2019-03-24T01:18:18.341Z,35.96
2019-03-24T01:19:18.359Z,36.05
2019-03-24T01:20:18.367Z,35.96
2019-03-24T01:21:18.375Z,35.96
2019-03-24T01:22:18.386Z,36.05
2019-03-24T01:23:18.399Z,36.05
2019-03-24T01:24:18.409Z,36.05
2019-03-24T01:25:18.422Z,35.86
2019-03-24T01:26:18.435Z,35.96
2019-03-24T01:27:18.447Z,35.86
2019-03-24T01:28:18.455Z,35.77
2019-03-24T01:29:18.471Z,35.77
2019-03-24T01:30:18.482Z,35.96
2019-03-24T01:31:18.495Z,36.05
2019-03-24T01:32:18.503Z,35.86
2019-03-24T01:33:18.511Z,35.96
2019-03-24T01:34:18.520Z,35.58
2019-03-24T01:35:18.533Z,35.86
2019-03-24T01:36:18.544Z,35.58
2019-03-24T01:37:18.557Z,35.86
2019-03-24T01:38:18.567Z,35.68
2019-03-24T01:39:18.576Z,35.49
2019-03-24T01:40:18.592Z,35.30
2019-03-24T01:41:18.603Z,35.11
2019-03-24T01:42:18.613Z,35.20
2019-03-24T01:43:18.620Z,35.68
2019-03-24T01:44:18.646Z,35.77
2019-03-24T01:45:18.645Z,35.68
2019-03-24T01:46:18.657Z,36.34
2019-03-24T01:47:18.670Z,36.24
2019-03-24T01:48:18.676Z,36.53
2019-03-24T01:49:18.692Z,36.34
2019-03-24T01:50:18.698Z,35.96
2019-03-24T01:51:18.711Z,36.05
2019-03-24T01:52:18.723Z,36.05
2019-03-24T01:53:18.732Z,35.77
2019-03-24T01:54:18.769Z,36.05
2019-03-24T01:55:18.757Z,35.77
2019-03-24T01:56:18.766Z,36.05
2019-03-24T01:57:18.776Z,36.15
2019-03-24T01:58:18.789Z,36.24
2019-03-24T01:59:18.799Z,36.72
2019-03-24T02:00:18.809Z,37.19
2019-03-24T02:01:18.825Z,36.91
2019-03-24T02:02:18.838Z,36.91
2019-03-24T02:03:18.847Z,36.91
2019-03-24T02:04:18.854Z,36.63
2019-03-24T02:05:18.868Z,36.24
2019-03-24T02:06:18.880Z,36.15
2019-03-24T02:07:18.886Z,36.24
2019-03-24T02:08:18.897Z,35.77
2019-03-24T02:09:18.912Z,35.86
2019-03-24T02:10:18.919Z,35.58
2019-03-24T02:11:18.929Z,35.68
2019-03-24T02:12:18.945Z,35.86
2019-03-24T02:13:18.957Z,36.15
2019-03-24T02:14:18.967Z,36.44
2019-03-24T02:15:18.975Z,37.01
2019-03-24T02:16:18.991Z,36.15
2019-03-24T02:17:19.002Z,36.15
2019-03-24T02:18:19.009Z,35.96
2019-03-24T02:19:19.017Z,36.15
2019-03-24T02:20:19.034Z,36.24
2019-03-24T02:21:19.046Z,36.05
2019-03-24T02:22:19.054Z,36.44
2019-03-24T02:23:19.061Z,36.53
2019-03-24T02:24:19.071Z,36.82
2019-03-24T02:25:19.082Z,36.24
2019-03-24T02:26:19.097Z,36.24
2019-03-24T02:27:19.106Z,36.34
2019-03-24T02:28:19.115Z,35.96
2019-03-24T02:29:19.125Z,36.15
2019-03-24T02:30:19.148Z,36.05
2019-03-24T02:31:19.163Z,36.24
2019-03-24T02:32:19.159Z,36.82
2019-03-24T02:33:19.170Z,36.82
2019-03-24T02:34:19.181Z,36.63
2019-03-24T02:35:19.193Z,36.72
2019-03-24T02:36:19.216Z,36.63
2019-03-24T02:37:19.218Z,36.63
2019-03-24T02:38:19.222Z,36.53
2019-03-24T02:39:19.238Z,36.82
2019-03-24T02:40:19.247Z,36.34
2019-03-24T02:41:19.269Z,36.34
2019-03-24T02:42:19.281Z,36.24
2019-03-24T02:43:19.280Z,35.96
2019-03-24T02:44:19.290Z,36.15
2019-03-24T02:45:19.297Z,36.04
2019-03-24T02:46:24.798Z,36.44
2019-03-24T02:47:19.325Z,36.15
2019-03-24T02:48:19.343Z,36.05
2019-03-24T02:49:19.344Z,35.96
2019-03-24T02:50:19.354Z,35.77
2019-03-24T02:51:19.360Z,35.49
2019-03-24T02:52:19.375Z,35.11
2019-03-24T02:53:19.385Z,35.58
2019-03-24T02:54:19.390Z,35.68
2019-03-24T02:55:19.402Z,35.86
2019-03-24T02:56:19.414Z,35.86
2019-03-24T02:57:19.430Z,35.77
2019-03-24T02:58:19.439Z,35.58
2019-03-24T02:59:19.452Z,35.11
2019-03-24T03:00:19.458Z,35.01
2019-03-24T03:01:19.475Z,35.38
2019-03-24T03:02:19.481Z,35.77
2019-03-24T03:03:19.494Z,36.05
2019-03-24T03:04:19.505Z,35.94
2019-03-24T03:05:19.517Z,36.34
2019-03-24T03:06:19.523Z,36.34
2019-03-24T03:07:19.534Z,36.44
2019-03-24T03:08:19.547Z,36.63
2019-03-24T03:09:19.565Z,36.72
2019-03-24T03:10:19.568Z,36.80
2019-03-24T03:11:19.578Z,36.53
2019-03-24T03:12:19.593Z,36.24
2019-03-24T03:13:19.597Z,35.94
2019-03-24T03:14:19.610Z,35.58
2019-03-24T03:15:19.621Z,35.68
2019-03-24T03:16:19.635Z,35.49
2019-03-24T03:17:19.643Z,35.86
2019-03-24T03:18:19.655Z,35.75
2019-03-24T03:19:19.673Z,35.58
2019-03-24T03:20:19.673Z,35.75
2019-03-24T03:21:19.685Z,35.58
2019-03-24T03:22:19.691Z,35.49
2019-03-24T03:23:19.708Z,35.39
2019-03-24T03:24:19.720Z,35.20
2019-03-24T03:25:19.732Z,35.58
2019-03-24T03:26:19.738Z,35.20
2019-03-24T03:27:19.752Z,35.20
2019-03-24T03:28:19.766Z,35.20
2019-03-24T03:29:19.774Z,35.20
2019-03-24T03:30:19.800Z,34.99
2019-03-24T03:31:19.791Z,34.63
2019-03-24T03:32:19.806Z,34.80
2019-03-24T03:33:19.822Z,34.44
2019-03-24T03:34:19.873Z,34.54
2019-03-24T03:35:19.835Z,34.82
2019-03-24T03:36:19.862Z,34.92
2019-03-24T03:37:19.870Z,34.92
2019-03-24T03:38:19.881Z,34.92
2019-03-24T03:39:19.886Z,34.61
2019-03-24T03:40:19.921Z,34.63
2019-03-24T03:41:19.961Z,34.90
2019-03-24T03:42:19.908Z,34.99
2019-03-24T03:43:19.934Z,35.11
2019-03-24T03:44:19.936Z,35.09
2019-03-24T03:45:19.941Z,35.49
2019-03-24T03:46:19.951Z,35.39
2019-03-24T03:47:19.969Z,35.09
2019-03-24T03:48:19.975Z,34.92
2019-03-24T03:49:19.984Z,34.82
2019-03-24T03:50:19.992Z,34.90
2019-03-24T03:51:20.012Z,35.20
2019-03-24T03:52:20.017Z,35.11
2019-03-24T03:53:20.028Z,35.18
2019-03-24T03:54:20.044Z,34.63
2019-03-24T03:55:20.060Z,33.69
2019-03-24T03:56:20.061Z,33.69
2019-03-24T03:57:20.075Z,33.69
2019-03-24T03:58:20.080Z,34.16
2019-03-24T03:59:20.098Z,34.23
2019-03-24T04:00:20.107Z,33.78
2019-03-24T04:01:20.109Z,33.76
2019-03-24T04:02:20.125Z,33.67
2019-03-24T04:03:20.140Z,33.76
2019-03-24T04:04:20.150Z,34.05
2019-03-24T04:05:20.156Z,33.76
2019-03-24T04:06:20.164Z,33.57
2019-03-24T04:07:20.173Z,33.86
2019-03-24T04:08:20.188Z,32.91
2019-03-24T04:09:20.200Z,32.71
2019-03-24T04:10:20.209Z,32.71
2019-03-24T04:11:20.219Z,32.07
2019-03-24T04:12:20.230Z,32.24
2019-03-24T04:13:20.252Z,32.35
2019-03-24T04:14:20.252Z,32.43
2019-03-24T04:15:20.258Z,33.02
2019-03-24T04:16:20.269Z,33.57
2019-03-24T04:17:20.286Z,33.95
2019-03-24T04:18:20.293Z,34.52
2019-03-24T04:19:20.306Z,34.90
2019-03-24T04:20:20.316Z,34.61
2019-03-24T04:21:20.323Z,35.18
2019-03-24T04:22:20.340Z,35.09
2019-03-24T04:23:20.360Z,35.18
2019-03-24T04:24:20.354Z,35.47
2019-03-24T04:25:20.362Z,34.80
2019-03-24T04:26:20.377Z,35.18
2019-03-24T04:27:20.388Z,35.09
2019-03-24T04:28:20.395Z,35.66
2019-03-24T04:29:20.406Z,35.57
2019-03-24T04:30:20.417Z,35.57
2019-03-24T04:31:20.425Z,36.04
2019-03-24T04:32:20.437Z,36.22
2019-03-24T04:33:20.447Z,36.13
2019-03-24T04:34:20.456Z,36.70
2019-03-24T04:35:20.466Z,36.80
2019-03-24T04:36:20.484Z,36.42
2019-03-24T04:37:20.490Z,36.51
2019-03-24T04:38:20.499Z,36.61
2019-03-24T04:39:20.514Z,37.08
2019-03-24T04:40:20.519Z,36.89
2019-03-24T04:41:20.530Z,36.51
2019-03-24T04:42:20.544Z,35.94
2019-03-24T04:43:20.548Z,35.94
2019-03-24T04:44:20.556Z,35.94
2019-03-24T04:45:20.569Z,35.94
2019-03-24T04:46:20.576Z,35.75
2019-03-24T04:47:20.586Z,35.66
2019-03-24T04:48:20.598Z,35.09
2019-03-24T04:49:20.611Z,35.28
2019-03-24T04:50:20.620Z,35.47
2019-03-24T04:51:20.633Z,35.47
2019-03-24T04:52:20.639Z,35.28
2019-03-24T04:53:20.928Z,34.71
2019-03-24T04:54:20.660Z,34.80
2019-03-24T04:55:20.672Z,34.71
2019-03-24T04:56:20.682Z,34.61
2019-03-24T04:57:20.691Z,34.42
2019-03-24T04:58:20.705Z,34.61
2019-03-24T04:59:20.714Z,34.42
2019-03-24T05:00:20.721Z,34.71
2019-03-24T05:01:20.734Z,34.52
2019-03-24T05:02:20.745Z,34.33
2019-03-24T05:03:20.748Z,34.52
2019-03-24T05:04:20.760Z,34.33
2019-03-24T05:05:20.774Z,33.86
2019-03-24T05:06:20.781Z,33.67
2019-03-24T05:07:20.787Z,33.57
2019-03-24T05:08:20.799Z,33.48
2019-03-24T05:09:20.808Z,33.67
2019-03-24T05:10:20.818Z,33.86
2019-03-24T05:11:20.830Z,34.23
2019-03-24T05:12:20.838Z,33.95
2019-03-24T05:13:20.849Z,34.52
2019-03-24T05:14:20.865Z,34.61
2019-03-24T05:15:20.871Z,34.52
2019-03-24T05:16:20.878Z,34.90
2019-03-24T05:17:26.916Z,34.52
2019-03-24T05:18:20.903Z,34.71
2019-03-24T05:19:20.909Z,34.99
2019-03-24T05:20:20.920Z,34.99
2019-03-24T05:21:20.933Z,34.99
2019-03-24T05:22:20.943Z,34.90
2019-03-24T05:23:20.950Z,34.99
2019-03-24T05:24:20.966Z,34.90
2019-03-24T05:25:20.975Z,34.52
2019-03-24T05:26:20.992Z,34.14
2019-03-24T05:27:20.989Z,33.95
2019-03-24T05:28:21.005Z,34.05
2019-03-24T05:29:21.015Z,34.14
2019-03-24T05:30:21.026Z,34.23
2019-03-24T05:31:21.034Z,34.52
2019-03-24T05:32:21.047Z,34.52
2019-03-24T05:33:21.056Z,33.67
2019-03-24T05:34:21.061Z,33.76
2019-03-24T05:35:21.075Z,33.76
2019-03-24T05:36:21.086Z,34.14
2019-03-24T05:37:21.093Z,34.05
2019-03-24T05:38:21.102Z,33.86
2019-03-24T05:39:21.118Z,33.76
2019-03-24T05:40:21.124Z,33.86
2019-03-24T05:41:21.138Z,34.05
2019-03-24T05:42:21.148Z,34.42
2019-03-24T05:43:21.157Z,34.33
2019-03-24T05:44:21.164Z,34.33
2019-03-24T05:45:21.180Z,34.42
2019-03-24T05:46:21.185Z,34.52
2019-03-24T05:47:21.195Z,34.52
2019-03-24T05:48:21.214Z,34.42
2019-03-24T05:49:21.223Z,34.42
2019-03-24T05:50:21.230Z,34.33
2019-03-24T05:51:21.244Z,34.61
2019-03-24T05:52:21.251Z,34.80
2019-03-24T05:53:21.262Z,34.42
2019-03-24T05:54:21.267Z,34.52
2019-03-24T05:55:21.278Z,34.52
2019-03-24T05:56:21.296Z,34.90
2019-03-24T05:57:21.299Z,34.52
2019-03-24T05:58:21.308Z,34.61
2019-03-24T05:59:21.324Z,34.80
2019-03-24T06:00:21.333Z,34.99
2019-03-24T06:01:21.340Z,34.99
2019-03-24T06:02:21.353Z,34.99
2019-03-24T06:03:21.363Z,34.99
2019-03-24T06:04:21.372Z,35.09
2019-03-24T06:05:21.381Z,34.71
2019-03-24T06:06:21.393Z,34.90
2019-03-24T06:07:21.405Z,35.18
2019-03-24T06:08:21.412Z,35.38
2019-03-24T06:09:21.434Z,35.18
2019-03-24T06:10:21.433Z,34.80
2019-03-24T06:11:21.445Z,34.80
2019-03-24T06:12:21.454Z,34.80
2019-03-24T06:13:21.462Z,35.28
2019-03-24T06:14:21.473Z,35.66
2019-03-24T06:15:21.485Z,35.66
2019-03-24T06:16:21.495Z,35.94
2019-03-24T06:17:21.514Z,35.75
2019-03-24T06:18:21.513Z,35.28
2019-03-24T06:19:21.530Z,34.99
2019-03-24T06:20:21.536Z,34.61
2019-03-24T06:21:21.544Z,34.52
2019-03-24T06:22:21.559Z,34.42
2019-03-24T06:23:21.569Z,34.52
2019-03-24T06:24:21.575Z,34.52
2019-03-24T06:25:21.597Z,34.80
2019-03-24T06:26:21.598Z,35.09
2019-03-24T06:27:21.606Z,34.90
2019-03-24T06:28:21.618Z,34.99
2019-03-24T06:29:21.631Z,34.99
2019-03-24T06:30:21.641Z,34.61
2019-03-24T06:31:21.647Z,34.42
2019-03-24T06:32:21.657Z,34.99
2019-03-24T06:33:21.670Z,35.09
2019-03-24T06:34:21.677Z,34.80
2019-03-24T06:35:21.692Z,34.99
2019-03-24T06:36:21.698Z,35.09
2019-03-24T06:37:21.712Z,35.57
2019-03-24T06:38:21.718Z,35.09
2019-03-24T06:39:21.728Z,35.38
2019-03-24T06:40:21.741Z,34.99
2019-03-24T06:41:21.750Z,35.18
2019-03-24T06:42:21.779Z,35.09
2019-03-24T06:43:21.771Z,34.90
2019-03-24T06:44:21.780Z,34.63
2019-03-24T06:45:28.284Z,34.73
2019-03-24T06:46:21.800Z,34.90
2019-03-24T06:47:21.816Z,34.99
2019-03-24T06:48:21.822Z,35.01
2019-03-24T06:49:21.831Z,34.82
2019-03-24T06:50:21.846Z,34.44
2019-03-24T06:51:21.854Z,34.05
2019-03-24T06:52:21.865Z,34.73
2019-03-24T06:53:21.872Z,34.92
2019-03-24T06:54:21.926Z,34.71
2019-03-24T06:55:21.890Z,35.11
2019-03-24T06:56:21.901Z,35.49
2019-03-24T06:57:21.915Z,36.05
2019-03-24T06:58:21.924Z,35.77
2019-03-24T06:59:21.932Z,35.49
2019-03-24T07:00:21.947Z,35.77
2019-03-24T07:01:21.957Z,35.58
2019-03-24T07:02:21.968Z,34.63
2019-03-24T07:03:21.972Z,34.54
2019-03-24T07:04:21.990Z,34.25
2019-03-24T07:05:21.995Z,33.11
2019-03-24T07:06:22.004Z,31.79
2019-03-24T07:07:22.020Z,31.04
2019-03-24T07:08:22.025Z,30.85
2019-03-24T07:09:22.036Z,32.18
2019-03-24T07:10:22.050Z,33.13
2019-03-24T07:11:22.060Z,33.61
2019-03-24T07:12:22.070Z,33.70
2019-03-24T07:13:22.080Z,33.05
2019-03-24T07:14:22.136Z,32.01
2019-03-24T07:15:22.108Z,30.87
2019-03-24T07:16:22.115Z,29.92
2019-03-24T07:17:22.121Z,29.25
2019-03-24T07:18:22.134Z,27.84
2019-03-24T07:19:22.147Z,27.75
2019-03-24T07:20:22.155Z,28.31
2019-03-24T07:21:22.167Z,28.98
2019-03-24T07:22:22.178Z,29.17
2019-03-24T07:23:22.193Z,28.60
2019-03-24T07:24:22.197Z,28.98
2019-03-24T07:25:22.212Z,29.36
2019-03-24T07:26:22.219Z,28.98
2019-03-24T07:27:22.230Z,29.08
2019-03-24T07:28:22.241Z,27.94
2019-03-24T07:29:22.257Z,28.23
2019-03-24T07:30:22.269Z,28.81
2019-03-24T07:31:22.278Z,27.76
2019-03-24T07:32:22.287Z,27.57
2019-03-24T07:33:22.300Z,27.76
2019-03-24T07:34:22.314Z,27.76
2019-03-24T07:35:22.323Z,27.57
2019-03-24T07:36:22.332Z,28.33
2019-03-24T07:37:22.346Z,28.81
2019-03-24T07:38:22.359Z,29.09
2019-03-24T07:39:22.367Z,28.98
2019-03-24T07:40:22.376Z,28.90
2019-03-24T07:41:22.394Z,28.71
2019-03-24T07:42:22.397Z,28.52
2019-03-24T07:43:22.411Z,29.28
2019-03-24T07:44:22.420Z,28.71
2019-03-24T07:45:22.432Z,29.95
2019-03-24T07:46:22.454Z,30.43
2019-03-24T07:47:22.457Z,30.14
2019-03-24T07:48:22.466Z,29.85
2019-03-24T07:49:22.479Z,29.85
2019-03-24T07:50:22.493Z,29.28
2019-03-24T07:51:22.504Z,30.23
2019-03-24T07:52:22.518Z,29.66
2019-03-24T07:53:22.526Z,29.00
2019-03-24T07:54:22.538Z,29.85
2019-03-24T07:55:22.545Z,31.10
2019-03-24T07:56:22.561Z,31.01
2019-03-24T07:57:22.581Z,29.86
2019-03-24T07:58:22.582Z,29.39
2019-03-24T07:59:22.595Z,28.42
2019-03-24T08:00:22.607Z,28.81
2019-03-24T08:01:22.615Z,29.39
2019-03-24T08:02:22.627Z,28.92
2019-03-24T08:03:22.639Z,27.76
2019-03-24T08:04:22.650Z,28.06
2019-03-24T08:05:22.663Z,27.76
2019-03-24T08:06:22.680Z,27.95
2019-03-24T08:07:22.689Z,29.30
2019-03-24T08:08:22.702Z,29.96
2019-03-24T08:09:22.715Z,29.49
2019-03-24T08:10:22.727Z,29.11
2019-03-24T08:11:22.734Z,29.49
2019-03-24T08:12:22.747Z,30.17
2019-03-24T08:13:22.759Z,29.88
2019-03-24T08:14:22.801Z,28.64
2019-03-24T08:15:22.779Z,28.74
2019-03-24T08:16:22.797Z,27.69
2019-03-24T08:17:22.803Z,27.69
2019-03-24T08:18:29.849Z,27.98
2019-03-24T08:19:22.829Z,29.50
2019-03-24T08:20:22.845Z,31.02
2019-03-24T08:21:22.856Z,29.31
2019-03-24T08:22:22.864Z,29.52
2019-03-24T08:23:22.876Z,29.03
2019-03-24T08:24:22.893Z,30.09
2019-03-24T08:25:22.901Z,27.79
2019-03-24T08:26:22.912Z,29.33
2019-03-24T08:27:22.928Z,28.85
2019-03-24T08:28:23.257Z,28.56
2019-03-24T08:29:22.953Z,27.79
2019-03-24T08:30:22.964Z,29.61
2019-03-24T08:31:22.976Z,29.80
2019-03-24T08:32:22.986Z,30.09
2019-03-24T08:33:23.002Z,29.99
2019-03-24T08:34:23.011Z,30.09
2019-03-24T08:35:23.025Z,28.75
2019-03-24T08:36:23.042Z,27.51
2019-03-24T08:37:23.050Z,28.38
2019-03-24T08:38:23.061Z,28.66
2019-03-24T08:39:23.074Z,28.93
2019-03-24T08:40:23.087Z,27.88
2019-03-24T08:41:23.099Z,28.27
2019-03-24T08:42:23.116Z,29.60
2019-03-24T08:43:23.128Z,28.08
2019-03-24T08:44:23.136Z,28.83
2019-03-24T08:45:23.151Z,29.71
2019-03-24T08:46:23.164Z,29.33
2019-03-24T08:47:23.179Z,29.25
2019-03-24T08:48:23.191Z,28.28
2019-03-24T08:49:23.200Z,28.77
2019-03-24T08:50:23.215Z,28.09
2019-03-24T08:51:23.229Z,27.61
2019-03-24T08:52:23.246Z,27.71
2019-03-24T08:53:23.258Z,27.61
2019-03-24T08:54:23.266Z,27.04
2019-03-24T08:55:23.277Z,27.23
2019-03-24T08:56:23.294Z,29.23
2019-03-24T08:57:23.306Z,29.34
2019-03-24T08:58:23.318Z,28.69
2019-03-24T08:59:23.333Z,27.81
2019-03-24T09:00:30.474Z,26.20
2019-03-24T09:01:23.361Z,26.86
2019-03-24T09:02:23.373Z,27.73
2019-03-24T09:03:23.384Z,27.55
2019-03-24T09:04:23.401Z,27.36
2019-03-24T09:05:23.407Z,27.34
2019-03-24T09:06:23.416Z,26.78
2019-03-24T09:07:23.433Z,26.31
2019-03-24T09:08:23.448Z,26.02
2019-03-24T09:09:23.459Z,26.68
2019-03-24T09:10:23.469Z,26.68
2019-03-24T09:11:31.289Z,25.34
2019-03-24T09:12:23.500Z,26.48
2019-03-24T09:13:23.513Z,27.15
2019-03-24T09:14:23.526Z,25.34
2019-03-24T09:15:23.538Z,26.77
2019-03-24T09:16:23.551Z,26.48
2019-03-24T09:17:23.583Z,26.86
2019-03-24T09:18:23.577Z,27.45
2019-03-24T09:19:23.589Z,26.68
2019-03-24T09:20:23.601Z,25.53
2019-03-24T09:21:23.621Z,24.88
2019-03-24T09:22:23.628Z,24.39
2019-03-24T09:23:23.642Z,25.34
2019-03-24T09:24:23.658Z,26.01
2019-03-24T09:25:23.704Z,24.19
2019-03-24T09:26:23.682Z,25.34
2019-03-24T09:27:23.696Z,25.91
2019-03-24T09:28:23.761Z,25.64
2019-03-24T09:29:23.727Z,28.13
2019-03-24T09:30:23.735Z,27.86
2019-03-24T09:31:23.765Z,25.74
2019-03-24T09:32:23.765Z,23.93
2019-03-24T09:33:23.778Z,24.59
2019-03-24T09:34:23.789Z,25.64
2019-03-24T09:35:23.805Z,25.73
2019-03-24T09:36:23.820Z,26.79
2019-03-24T09:37:23.835Z,25.46
2019-03-24T09:38:23.848Z,26.61
2019-03-24T09:39:23.858Z,25.19
2019-03-24T09:40:23.877Z,25.38
2019-03-24T09:41:23.896Z,24.03
2019-03-24T09:42:23.902Z,24.51
2019-03-24T09:43:23.913Z,25.09
2019-03-24T09:44:23.927Z,24.99
2019-03-24T09:45:23.946Z,24.69
2019-03-24T09:46:23.958Z,24.69
2019-03-24T09:47:23.972Z,26.72
2019-03-24T09:48:23.988Z,25.67
2019-03-24T09:49:23.998Z,24.32
2019-03-24T09:50:24.011Z,24.60
2019-03-24T09:51:24.026Z,23.65
2019-03-24T09:52:24.043Z,24.13
2019-03-24T09:53:24.059Z,24.60
2019-03-24T09:54:24.073Z,25.47
2019-03-24T09:55:24.087Z,24.43
2019-03-24T09:56:24.097Z,23.66
2019-03-24T09:57:24.113Z,22.61
2019-03-24T09:58:24.128Z,25.01
2019-03-24T09:59:24.146Z,25.21
2019-03-24T10:00:24.157Z,23.88
2019-03-24T10:01:24.170Z,23.39
2019-03-24T10:02:24.184Z,22.82
2019-03-24T10:03:24.199Z,24.26
2019-03-24T10:04:24.218Z,24.16
2019-03-24T10:05:24.232Z,23.11
2019-03-24T10:06:24.259Z,24.73
2019-03-24T10:07:24.259Z,23.69
2019-03-24T10:08:24.277Z,22.54
2019-03-24T10:09:24.292Z,23.02
2019-03-24T10:10:24.307Z,23.49
2019-03-24T10:11:24.320Z,22.92
2019-03-24T10:12:24.333Z,21.20
2019-03-24T10:13:24.350Z,22.93
2019-03-24T10:14:24.364Z,21.87
2019-03-24T10:15:24.385Z,21.38
2019-03-24T10:16:24.402Z,20.34
2019-03-24T10:17:24.412Z,19.74
2019-03-24T10:18:24.430Z,22.05
2019-03-24T10:19:24.441Z,24.15
2019-03-24T10:20:24.458Z,24.24
2019-03-24T10:21:24.470Z,25.10
2019-03-24T10:22:24.486Z,24.64
2019-03-24T10:23:24.505Z,24.93
2019-03-24T10:24:24.523Z,24.37
2019-03-24T10:25:24.533Z,21.77
2019-03-24T10:26:24.548Z,20.43
2019-03-24T10:27:24.559Z,21.86
2019-03-24T10:28:24.577Z,22.81
2019-03-24T10:29:24.596Z,22.16
2019-03-24T10:30:24.608Z,21.39
2019-03-24T10:31:24.624Z,20.16
2019-03-24T10:32:24.636Z,20.06
2019-03-24T10:33:24.659Z,21.59
2019-03-24T10:34:24.669Z,22.66
2019-03-24T10:35:24.685Z,21.89
2019-03-24T10:36:24.701Z,21.23
2019-03-24T10:37:24.730Z,21.90
2019-03-24T10:38:24.734Z,22.67
2019-03-24T10:39:24.750Z,21.34
2019-03-24T10:40:28.934Z,20.66
2019-03-24T10:41:24.780Z,22.01
2019-03-24T10:42:24.797Z,21.81
2019-03-24T10:43:24.812Z,19.80
2019-03-24T10:44:24.832Z,19.71
2019-03-24T10:45:24.847Z,19.33
2019-03-24T10:46:24.873Z,19.70
2019-03-24T10:47:24.880Z,19.52
2019-03-24T10:48:33.326Z,18.56
2019-03-24T10:49:25.415Z,18.85
2019-03-24T10:50:24.929Z,19.04
2019-03-24T10:51:24.943Z,19.81
2019-03-24T10:52:24.962Z,20.28
2019-03-24T10:53:24.975Z,20.56
2019-03-24T10:54:24.995Z,19.89
2019-03-24T10:55:25.008Z,20.18
2019-03-24T10:56:25.028Z,20.95
2019-03-24T10:57:25.043Z,22.57
2019-03-24T10:58:25.060Z,20.86
2019-03-24T10:59:25.075Z,22.01
2019-03-24T11:00:25.097Z,22.20
2019-03-24T11:01:25.109Z,20.95
2019-03-24T11:02:25.126Z,20.78
2019-03-24T11:03:25.143Z,20.01
2019-03-24T11:04:25.162Z,21.35
2019-03-24T11:05:25.184Z,22.02
2019-03-24T11:06:25.195Z,20.00
2019-03-24T11:07:25.211Z,22.01
2019-03-24T11:08:25.233Z,22.02
2019-03-24T11:09:25.328Z,22.22
2019-03-24T11:10:25.267Z,20.75
2019-03-24T11:11:25.281Z,20.55
2019-03-24T11:12:25.304Z,22.57
2019-03-24T11:13:25.320Z,23.05
2019-03-24T11:14:25.344Z,23.04
2019-03-24T11:15:25.355Z,24.87
2019-03-24T11:16:25.375Z,22.58
2019-03-24T11:17:25.390Z,22.39
2019-03-24T11:18:25.400Z,21.52
2019-03-24T11:19:35.258Z,24.98
2019-03-24T11:20:25.439Z,24.51
2019-03-24T11:21:25.459Z,21.73
2019-03-24T11:22:25.477Z,20.57
2019-03-24T11:23:25.490Z,20.00
2019-03-24T11:24:25.508Z,19.99
2019-03-24T11:25:25.522Z,21.22
2019-03-24T11:26:25.549Z,23.43
2019-03-24T11:27:25.562Z,22.57
2019-03-24T11:28:25.578Z,21.89
2019-03-24T11:29:25.597Z,22.47
2019-03-24T11:30:25.611Z,23.53
2019-03-24T11:31:25.627Z,22.76
2019-03-24T11:32:25.645Z,23.63
2019-03-24T11:33:25.667Z,23.84
2019-03-24T11:34:25.678Z,22.99
2019-03-24T11:35:25.697Z,20.87
2019-03-24T11:36:25.716Z,20.57
2019-03-24T11:37:25.732Z,20.85
2019-03-24T11:38:25.746Z,22.28
2019-03-24T11:39:25.769Z,23.55
2019-03-24T11:40:25.787Z,23.07
2019-03-24T11:41:25.800Z,22.70
2019-03-24T11:42:25.817Z,21.74
2019-03-24T11:43:25.842Z,22.51
2019-03-24T11:44:25.856Z,21.91
2019-03-24T11:45:25.875Z,22.01
2019-03-24T11:46:25.898Z,22.68
2019-03-24T11:47:26.939Z,22.39
2019-03-24T11:48:25.929Z,20.67
2019-03-24T11:49:25.942Z,21.72
2019-03-24T11:50:25.957Z,21.61
2019-03-24T11:51:25.978Z,21.33
2019-03-24T11:52:25.999Z,22.01
2019-03-24T11:53:26.012Z,22.67
2019-03-24T11:54:26.032Z,22.57
2019-03-24T11:55:26.050Z,22.38
2019-03-24T11:56:26.066Z,21.52
2019-03-24T11:57:26.081Z,21.81
2019-03-24T11:58:26.106Z,20.68
2019-03-24T11:59:26.123Z,20.58
2019-03-24T12:00:26.138Z,20.69
2019-03-24T12:01:26.157Z,20.22
2019-03-24T12:02:26.169Z,19.94
2019-03-24T12:03:26.190Z,19.06
2019-03-24T12:04:26.211Z,19.92
2019-03-24T12:05:26.227Z,19.82
2019-03-24T12:06:26.243Z,20.29
2019-03-24T12:07:26.261Z,20.58
2019-03-24T12:08:26.281Z,20.59
2019-03-24T12:09:26.300Z,19.25
2019-03-24T12:10:26.316Z,19.45
2019-03-24T12:11:26.332Z,19.55
2019-03-24T12:12:26.349Z,19.17
2019-03-24T12:13:26.375Z,18.67
2019-03-24T12:14:26.390Z,19.62
2019-03-24T12:15:26.420Z,19.42
2019-03-24T12:16:26.424Z,19.99
2019-03-24T12:17:26.447Z,19.51
2019-03-24T12:18:26.458Z,18.56
2019-03-24T12:19:26.480Z,18.67
2019-03-24T12:20:26.497Z,18.86
2019-03-24T12:21:26.514Z,19.43
2019-03-24T12:22:26.532Z,19.34
2019-03-24T12:23:26.555Z,19.53
2019-03-24T12:24:26.576Z,19.62
2019-03-24T12:25:26.592Z,19.03
2019-03-24T12:26:26.609Z,20.00
2019-03-24T12:27:26.626Z,20.00
2019-03-24T12:28:26.644Z,20.86
2019-03-24T12:29:26.662Z,19.82
2019-03-24T12:30:26.678Z,20.40
2019-03-24T12:31:26.696Z,19.25
2019-03-24T12:32:26.718Z,19.24
2019-03-24T12:33:26.736Z,18.96
2019-03-24T12:34:26.751Z,19.04
2019-03-24T12:35:26.777Z,19.04
2019-03-24T12:36:26.798Z,19.34
2019-03-24T12:37:26.813Z,19.42
2019-03-24T12:38:26.824Z,22.02
2019-03-24T12:39:26.848Z,19.42
2019-03-24T12:40:26.865Z,19.80
2019-03-24T12:41:26.880Z,21.33
2019-03-24T12:42:26.899Z,20.07
2019-03-24T12:43:26.916Z,20.85
2019-03-24T12:44:26.935Z,20.95
2019-03-24T12:45:26.983Z,20.78
2019-03-24T12:46:26.970Z,20.68
2019-03-24T12:47:26.989Z,19.92
2019-03-24T12:48:27.118Z,19.62
2019-03-24T12:49:27.025Z,20.01
2019-03-24T12:50:31.626Z,19.03
2019-03-24T12:51:27.069Z,20.29
2019-03-24T12:52:27.079Z,18.95